Pagrindinis puslapis
METAR-TAF:

METAR-TAF

Oro uostai :

Hof, Vokietija

platuma: 50-19N, ilguma: 011-53E, Aukštis: 567 m

Dabartinis oras

Ataskaita buvo paskelbta 40 minutes, ne 08:50 UTC
Vėjas 4 kt iš Šiaurės, svyruoja nuo Vakarų/Šiaurės Vakarų ir Šiaurės Rytų
Temperatūra 10°C
Drėgmė 62%
Slėgis 1029 hPa
Matomumas 10 km arba daugiau
nėra debesų žemiau 1500 m ir nėra kamuolinių lietaus debesų

METAR: EDQM 200850Z 36004KT 300V050 CAVOK 10/03 Q1029

Laikas: 11:30 (09:30 UTC)

Prognozė

Ataskaita buvo paskelbta 1 valandą ir 30 minutes, ne 08:00 UTC
Prognozė galioja nuo 20 metu 09 UTC su 20 metu 18 UTC
Vėjas 6 kt iš Rytų/Šiaurės Rytų
Matomumas 10 km arba daugiau
Mažai debesys ne aukštis 4500 ft

TAF: EDQM 200800Z 2009/2018 06006KT 9999 FEW045

Orai ataskaitas ir orų prognozės (METAR, TAF).

turimą stotys yra geltonos ir raudonos taškus žemėlapyje.

Perkelti pele per norėdami pamatyti stoties vardą.

Tada spustelėkite, norėdami matyti oro stebėjimo ir prognozės.

Norėdami pakeisti žemėlapį: spustelėkite ant žalios mygtukų su juodo kryžiaus žemyn,; žalią mygtuką su brūkšneliu, jei norite nutolinti; arba žalių rodyklių gretimoms žemėlapius.


METAR-TAF: